createdAt,value
2022-08-14T00:01:14.055Z,8.57
2022-08-14T00:06:29.124Z,9.00
2022-08-14T00:11:32.398Z,9.02
2022-08-14T00:16:41.591Z,8.80
2022-08-14T00:21:50.892Z,8.98
2022-08-14T00:26:54.833Z,9.00
2022-08-14T00:31:57.883Z,9.68
2022-08-14T00:37:01.888Z,9.38
2022-08-14T00:42:06.805Z,8.57
2022-08-14T00:47:26.913Z,8.85
2022-08-14T00:52:32.336Z,8.37
2022-08-14T00:57:37.057Z,8.60
2022-08-14T01:02:45.660Z,9.00
2022-08-14T01:07:59.915Z,7.95
2022-08-14T01:13:02.719Z,8.43
2022-08-14T01:18:24.573Z,7.90
2022-08-14T01:23:41.805Z,8.50
2022-08-14T01:28:57.910Z,8.63
2022-08-14T01:35:19.759Z,8.18
2022-08-14T01:39:28.061Z,8.02
2022-08-14T01:44:36.564Z,8.57
2022-08-14T01:49:40.539Z,8.85
2022-08-14T01:54:58.144Z,8.82
2022-08-14T02:00:03.296Z,9.07
2022-08-14T02:05:12.399Z,7.82
2022-08-14T02:10:16.781Z,8.63
2022-08-14T02:15:22.195Z,8.13
2022-08-14T02:20:24.926Z,8.55
2022-08-14T02:25:29.920Z,7.82
2022-08-14T02:30:38.139Z,8.70
2022-08-14T02:35:43.672Z,8.73
2022-08-14T02:40:56.227Z,8.05
2022-08-14T02:45:59.743Z,8.13
2022-08-14T02:51:10.873Z,7.97
2022-08-14T02:56:30.305Z,7.95
2022-08-14T03:01:43.839Z,8.37
2022-08-14T03:07:06.062Z,8.82
2022-08-14T03:12:11.134Z,7.88
2022-08-14T03:17:14.143Z,8.05
2022-08-14T03:22:20.216Z,8.63
2022-08-14T03:27:26.615Z,8.70
2022-08-14T03:32:39.082Z,8.75
2022-08-14T03:39:10.291Z,8.82
2022-08-14T03:43:08.744Z,8.05
2022-08-14T03:48:29.486Z,8.75
2022-08-14T03:53:36.962Z,8.60
2022-08-14T03:58:42.736Z,8.60
2022-08-14T04:03:46.814Z,8.75
2022-08-14T04:08:52.457Z,9.63
2022-08-14T04:14:01.533Z,9.55
2022-08-14T04:19:05.105Z,10.03
2022-08-14T04:24:07.982Z,9.25
2022-08-14T04:29:16.564Z,9.38
2022-08-14T04:34:24.065Z,9.60
2022-08-14T04:39:48.905Z,10.07
2022-08-14T04:45:01.173Z,9.43
2022-08-14T04:50:07.185Z,8.82
2022-08-14T04:55:11.346Z,9.13
2022-08-14T05:00:16.300Z,9.50
2022-08-14T05:05:21.310Z,9.43
2022-08-14T05:10:32.184Z,9.67
2022-08-14T05:15:39.601Z,10.00
2022-08-14T05:21:57.782Z,9.70
2022-08-14T05:26:13.553Z,9.52
2022-08-14T05:31:20.670Z,9.48
2022-08-14T05:36:27.001Z,9.87
2022-08-14T05:41:53.673Z,9.55
2022-08-14T05:46:52.812Z,9.18
2022-08-14T05:51:58.043Z,9.98
2022-08-14T05:57:01.198Z,10.30
2022-08-14T06:02:05.998Z,10.20
2022-08-14T06:07:09.606Z,10.02
2022-08-14T06:12:12.336Z,9.30
2022-08-14T06:17:58.705Z,9.77
2022-08-14T06:23:01.999Z,9.68
2022-08-14T06:28:05.559Z,9.43
2022-08-14T06:33:45.702Z,8.68
2022-08-14T06:38:53.562Z,8.90
2022-08-14T06:43:57.092Z,9.52
2022-08-14T06:49:00.367Z,8.02
2022-08-14T06:54:03.270Z,8.83
2022-08-14T06:59:06.392Z,8.43
2022-08-14T07:04:27.702Z,8.40
2022-08-14T07:09:43.883Z,7.88
2022-08-14T07:14:58.214Z,8.65
2022-08-14T07:20:07.309Z,7.50
2022-08-14T07:25:10.648Z,7.68
2022-08-14T07:30:34.207Z,7.22
2022-08-14T07:35:57.660Z,7.57
2022-08-14T07:41:00.676Z,6.70
2022-08-14T07:46:04.631Z,6.20
2022-08-14T07:51:10.842Z,5.88
2022-08-14T07:56:44.250Z,6.10
2022-08-14T08:01:37.280Z,6.68
2022-08-14T08:06:40.302Z,6.03
2022-08-14T08:11:46.510Z,6.70
2022-08-14T08:16:57.762Z,6.30
2022-08-14T08:22:03.873Z,5.97
2022-08-14T08:27:17.953Z,5.88
2022-08-14T08:32:20.848Z,5.68
2022-08-14T08:37:40.186Z,5.43
2022-08-14T08:42:47.599Z,5.65
2022-08-14T08:47:55.516Z,5.35
2022-08-14T08:53:02.617Z,5.85
2022-08-14T08:58:12.534Z,5.93
2022-08-14T09:03:21.981Z,5.33
2022-08-14T09:08:31.746Z,4.97
2022-08-14T09:13:36.452Z,4.50
2022-08-14T09:18:41.914Z,4.70
2022-08-14T09:24:28.442Z,4.65
2022-08-14T09:29:09.779Z,4.60
2022-08-14T09:34:37.809Z,4.50
2022-08-14T09:40:16.527Z,4.85
2022-08-14T09:45:40.200Z,3.95
2022-08-14T09:50:58.274Z,4.22
2022-08-14T09:56:02.669Z,4.03
2022-08-14T10:01:17.312Z,4.40
2022-08-14T10:06:28.580Z,3.83
2022-08-14T10:11:38.196Z,4.07
2022-08-14T10:16:52.879Z,3.47
2022-08-14T10:23:15.404Z,3.93
2022-08-14T10:27:32.195Z,3.70
2022-08-14T10:32:51.421Z,3.85
2022-08-14T10:37:55.164Z,3.38
2022-08-14T10:42:59.382Z,3.67
2022-08-14T10:48:24.394Z,3.00
2022-08-14T10:53:40.283Z,3.47
2022-08-14T10:58:43.603Z,3.50
2022-08-14T11:03:56.043Z,3.42
2022-08-14T11:09:00.013Z,3.45
2022-08-14T11:14:06.927Z,3.40
2022-08-14T11:19:14.019Z,3.40
2022-08-14T11:24:53.970Z,3.33
2022-08-14T11:29:44.662Z,3.17
2022-08-14T11:34:47.698Z,3.10
2022-08-14T11:39:51.277Z,2.67
2022-08-14T11:45:00.220Z,2.28
2022-08-14T11:50:25.170Z,2.53
2022-08-14T11:55:39.939Z,2.60
2022-08-14T12:00:48.021Z,2.55
2022-08-14T12:05:50.931Z,2.67
2022-08-14T12:10:58.992Z,2.83
2022-08-14T12:16:06.365Z,2.78
2022-08-14T12:21:25.684Z,2.60
2022-08-14T12:26:40.741Z,2.70
2022-08-14T12:31:51.583Z,3.17
2022-08-14T12:37:06.911Z,2.78
2022-08-14T12:42:11.948Z,3.03
2022-08-14T12:47:31.733Z,2.60
2022-08-14T12:52:55.956Z,2.95
2022-08-14T12:58:29.458Z,2.90
2022-08-14T13:03:30.774Z,2.60
2022-08-14T13:08:34.707Z,3.10
2022-08-14T13:13:44.627Z,2.88
2022-08-14T13:18:48.466Z,2.78
2022-08-14T13:24:04.221Z,2.33
2022-08-14T13:29:10.795Z,2.70
2022-08-14T13:34:16.459Z,4.90
2022-08-14T13:39:21.537Z,2.75
2022-08-14T13:44:27.502Z,2.95
2022-08-14T13:49:30.578Z,3.43
2022-08-14T13:54:36.677Z,4.22
2022-08-14T13:59:46.719Z,4.13
2022-08-14T14:05:00.154Z,3.95
2022-08-14T14:10:09.973Z,4.70
2022-08-14T14:15:20.023Z,4.63
2022-08-14T14:20:35.973Z,4.00
2022-08-14T14:25:51.058Z,5.07
2022-08-14T14:31:06.118Z,4.72
2022-08-14T14:36:14.247Z,4.30
2022-08-14T14:41:21.743Z,4.40
2022-08-14T14:46:36.419Z,4.75
2022-08-14T14:51:41.814Z,4.50
2022-08-14T14:56:51.778Z,4.07
2022-08-14T15:02:09.431Z,3.92
2022-08-14T15:07:13.102Z,4.50
2022-08-14T15:12:55.077Z,4.28
2022-08-14T15:17:42.774Z,4.90
2022-08-14T15:22:50.950Z,4.32
2022-08-14T15:27:55.017Z,4.53
2022-08-14T15:32:58.072Z,4.50
2022-08-14T15:38:08.120Z,5.00
2022-08-14T15:43:12.851Z,5.05
2022-08-14T15:48:22.748Z,4.70
2022-08-14T15:53:26.468Z,5.03
2022-08-14T15:58:35.080Z,5.10
2022-08-14T16:03:40.856Z,6.18
2022-08-14T16:08:58.791Z,6.07
2022-08-14T16:14:06.894Z,5.32
2022-08-14T16:19:11.224Z,5.32
2022-08-14T16:24:27.528Z,5.60
2022-08-14T16:29:34.607Z,4.75
2022-08-14T16:34:44.485Z,5.57
2022-08-14T16:39:49.998Z,5.65
2022-08-14T16:44:59.512Z,5.82
2022-08-14T16:50:08.353Z,5.80
2022-08-14T16:55:14.021Z,5.57
2022-08-14T17:00:44.004Z,6.10
2022-08-14T17:05:48.694Z,6.13
2022-08-14T17:10:51.781Z,6.00
2022-08-14T17:16:25.158Z,5.50
2022-08-14T17:21:41.034Z,5.75
2022-08-14T17:26:48.521Z,6.53
2022-08-14T17:32:22.074Z,6.03
2022-08-14T17:37:36.700Z,6.00
2022-08-14T17:42:53.377Z,6.20
2022-08-14T17:47:59.327Z,6.80
2022-08-14T17:53:03.516Z,6.70
2022-08-14T17:58:20.514Z,6.55
2022-08-14T18:03:50.823Z,6.38
2022-08-14T18:08:56.708Z,6.60
2022-08-14T18:14:02.052Z,6.70
2022-08-14T18:19:05.335Z,6.95
2022-08-14T18:24:20.001Z,6.63
2022-08-14T18:29:33.347Z,7.07
2022-08-14T18:34:50.903Z,7.03
2022-08-14T18:40:02.775Z,6.82
2022-08-14T18:45:12.951Z,7.03
2022-08-14T18:50:27.040Z,7.57
2022-08-14T18:55:34.175Z,8.20
2022-08-14T19:00:51.379Z,7.27
2022-08-14T19:05:54.967Z,8.50
2022-08-14T19:11:05.282Z,9.43
2022-08-14T19:16:13.407Z,8.57
2022-08-14T19:21:51.733Z,8.02
2022-08-14T19:27:24.117Z,8.50
2022-08-14T19:32:41.055Z,9.10
2022-08-14T19:37:47.857Z,8.23
2022-08-14T19:42:51.313Z,8.18
2022-08-14T19:48:02.261Z,8.60
2022-08-14T19:53:10.726Z,8.40
2022-08-14T19:58:14.451Z,8.27
2022-08-14T20:03:23.303Z,9.02
2022-08-14T20:11:02.420Z,8.75
2022-08-14T20:13:58.521Z,8.95
2022-08-14T20:19:12.829Z,8.50
2022-08-14T20:24:30.988Z,8.65
2022-08-14T20:29:38.077Z,9.93
2022-08-14T20:34:51.156Z,10.75
2022-08-14T20:39:55.608Z,10.93
2022-08-14T20:45:19.729Z,10.67
2022-08-14T20:50:28.214Z,10.85
2022-08-14T20:55:41.689Z,11.52
2022-08-14T21:00:57.907Z,10.38
2022-08-14T21:06:17.345Z,11.15
2022-08-14T21:11:25.980Z,10.20
2022-08-14T21:16:30.872Z,11.50
2022-08-14T21:21:42.477Z,9.65
2022-08-14T21:26:52.054Z,9.98
2022-08-14T21:32:03.491Z,9.80
2022-08-14T21:37:23.976Z,11.00
2022-08-14T21:42:28.423Z,11.35
2022-08-14T21:47:32.208Z,10.55
2022-08-14T21:52:51.210Z,11.23
2022-08-14T21:58:52.948Z,11.68
2022-08-14T22:03:24.413Z,10.50
2022-08-14T22:08:27.825Z,10.77
2022-08-14T22:13:32.538Z,10.70
2022-08-14T22:18:36.590Z,10.23
2022-08-14T22:23:39.776Z,10.57
2022-08-14T22:28:44.805Z,11.33
2022-08-14T22:33:49.902Z,11.30
2022-08-14T22:39:01.415Z,11.55
2022-08-14T22:44:11.653Z,10.75
2022-08-14T22:50:29.234Z,10.88
2022-08-14T22:54:52.566Z,11.47
2022-08-14T22:59:56.939Z,11.88
2022-08-14T23:05:03.731Z,11.35
2022-08-14T23:10:33.512Z,11.10
2022-08-14T23:15:30.593Z,11.52
2022-08-14T23:20:36.304Z,11.03
2022-08-14T23:25:57.938Z,11.00
2022-08-14T23:31:05.604Z,10.60
2022-08-14T23:36:31.885Z,11.50
2022-08-14T23:41:46.944Z,10.52
2022-08-14T23:47:03.237Z,10.63
2022-08-14T23:52:50.734Z,10.25
2022-08-14T23:57:31.144Z,10.73
